createdAt,value
2018-12-18T19:01:34.753Z,6.40
2018-12-18T19:04:05.293Z,8.30
2018-12-18T19:06:33.815Z,7.50
2018-12-18T19:09:02.780Z,7.37
2018-12-18T19:11:31.242Z,6.90
2018-12-18T19:13:59.835Z,7.10
2018-12-18T19:16:28.439Z,7.30
2018-12-18T19:18:56.937Z,8.30
2018-12-18T19:21:25.433Z,8.93
2018-12-18T19:23:53.945Z,7.90
2018-12-18T19:26:22.467Z,7.80
2018-12-18T19:28:51.773Z,8.30
2018-12-18T19:31:20.213Z,7.90
2018-12-18T19:33:48.643Z,7.97
2018-12-18T19:36:17.176Z,9.13
2018-12-18T19:38:45.577Z,8.00
2018-12-18T19:41:14.076Z,7.67
2018-12-18T19:43:42.647Z,8.00
2018-12-18T19:46:11.064Z,7.70
2018-12-18T19:48:39.872Z,7.30
2018-12-18T19:51:08.310Z,8.30
2018-12-18T19:53:36.781Z,8.03
2018-12-18T19:56:05.412Z,8.60
2018-12-18T19:58:33.890Z,9.03
2018-12-18T20:01:02.358Z,12.67
2018-12-18T20:03:30.974Z,10.23
2018-12-18T20:05:59.456Z,9.70
2018-12-18T20:08:28.575Z,9.93
2018-12-18T20:10:57.105Z,8.80
2018-12-18T20:13:25.651Z,8.20
2018-12-18T20:15:54.170Z,9.00
2018-12-18T20:18:22.586Z,8.90
2018-12-18T20:20:51.117Z,8.63
2018-12-18T20:23:19.696Z,8.30
2018-12-18T20:25:48.572Z,7.93
2018-12-18T20:28:16.989Z,8.97
2018-12-18T20:30:47.184Z,8.20
2018-12-18T20:33:15.593Z,9.27
2018-12-18T20:35:45.096Z,8.53
2018-12-18T20:38:16.854Z,10.00
2018-12-18T20:40:44.403Z,9.63
2018-12-18T20:43:12.787Z,9.50
2018-12-18T20:45:42.352Z,8.80
2018-12-18T20:48:10.733Z,8.93
2018-12-18T20:50:39.216Z,10.43
2018-12-18T20:53:07.652Z,9.57
2018-12-18T20:55:36.978Z,14.97
2018-12-18T20:58:05.417Z,9.70
2018-12-18T21:00:34.532Z,9.80
2018-12-18T21:03:02.927Z,10.03
2018-12-18T21:05:31.341Z,9.20
2018-12-18T21:07:59.887Z,10.00
2018-12-18T21:10:28.253Z,9.97
2018-12-18T21:13:01.002Z,10.40
2018-12-18T21:15:29.490Z,10.20
2018-12-18T21:17:57.893Z,10.83
2018-12-18T21:20:26.300Z,10.93
2018-12-18T21:22:54.700Z,10.53
2018-12-18T21:25:23.285Z,12.05
2018-12-18T21:27:52.468Z,10.00
2018-12-18T21:30:20.912Z,11.10
2018-12-18T21:32:49.487Z,10.93
2018-12-18T21:35:18.062Z,10.30
2018-12-18T21:37:46.943Z,10.43
2018-12-18T21:40:15.961Z,10.00
2018-12-18T21:42:44.537Z,10.90
2018-12-18T21:45:13.077Z,11.80
2018-12-18T21:47:41.474Z,13.50
2018-12-18T21:50:10.852Z,12.00
2018-12-18T21:52:39.229Z,13.20
2018-12-18T21:55:07.643Z,10.97
2018-12-18T21:57:36.074Z,10.80
2018-12-18T22:00:06.468Z,11.70
2018-12-18T22:02:34.854Z,12.00
2018-12-18T22:05:03.373Z,12.03
2018-12-18T22:07:31.755Z,10.97
2018-12-18T22:10:00.313Z,11.37
2018-12-18T22:12:29.205Z,11.30
2018-12-18T22:14:57.559Z,12.07
2018-12-18T22:17:25.913Z,10.83
2018-12-18T22:19:54.244Z,11.53
2018-12-18T22:22:22.829Z,11.83
2018-12-18T22:24:51.337Z,11.60
2018-12-18T22:27:20.311Z,10.97
2018-12-18T22:29:48.661Z,11.73
2018-12-18T22:32:17.059Z,11.30
2018-12-18T22:34:46.377Z,11.30
2018-12-18T22:37:14.901Z,11.50
2018-12-18T22:39:44.263Z,11.40
2018-12-18T22:42:12.740Z,12.03
2018-12-18T22:44:41.137Z,11.07
2018-12-18T22:47:09.503Z,10.03
2018-12-18T22:49:37.921Z,11.60
2018-12-18T22:52:06.393Z,11.17
2018-12-18T22:54:34.816Z,11.07
2018-12-18T22:57:04.411Z,10.50
2018-12-18T22:59:32.780Z,10.93
2018-12-18T23:02:05.395Z,10.27
2018-12-18T23:04:34.089Z,12.57
2018-12-18T23:07:02.474Z,11.03
2018-12-18T23:09:30.910Z,10.07
2018-12-18T23:11:59.299Z,11.60
2018-12-18T23:14:27.791Z,11.87
2018-12-18T23:16:56.271Z,10.43
2018-12-18T23:19:24.625Z,11.13
2018-12-18T23:21:52.996Z,10.50
2018-12-18T23:24:21.426Z,10.20
2018-12-18T23:26:49.749Z,11.73
2018-12-18T23:29:19.106Z,11.40
2018-12-18T23:31:47.724Z,11.20
2018-12-18T23:34:16.122Z,11.57
2018-12-18T23:36:44.484Z,10.80
2018-12-18T23:39:13.000Z,11.63
2018-12-18T23:41:41.584Z,11.37
2018-12-18T23:44:10.031Z,11.60
2018-12-18T23:46:38.444Z,10.90
2018-12-18T23:49:06.840Z,11.03
2018-12-18T23:51:35.471Z,10.43
2018-12-18T23:54:04.722Z,11.83
2018-12-18T23:56:33.128Z,10.33
2018-12-18T23:59:01.497Z,9.53
